createdAt,value
2023-02-04T00:02:03.992Z,62.37
2023-02-04T00:04:30.353Z,62.05
2023-02-04T00:06:56.737Z,62.27
2023-02-04T00:09:23.193Z,62.43
2023-02-04T00:11:49.583Z,62.17
2023-02-04T00:14:15.966Z,62.33
2023-02-04T00:16:42.398Z,62.59
2023-02-04T00:19:08.756Z,62.65
2023-02-04T00:21:35.117Z,63.11
2023-02-04T00:24:01.592Z,63.19
2023-02-04T00:26:28.015Z,63.49
2023-02-04T00:28:54.510Z,63.39
2023-02-04T00:31:20.989Z,63.73
2023-02-04T00:33:47.356Z,63.38
2023-02-04T00:36:13.765Z,63.39
2023-02-04T00:38:40.121Z,63.39
2023-02-04T00:41:07.040Z,63.61
2023-02-04T00:43:33.684Z,63.80
2023-02-04T00:46:00.295Z,63.31
2023-02-04T00:48:26.978Z,63.81
2023-02-04T00:50:54.057Z,63.42
2023-02-04T00:53:20.492Z,63.74
2023-02-04T00:55:46.868Z,63.81
2023-02-04T00:58:13.296Z,63.57
2023-02-04T01:00:39.727Z,63.23
2023-02-04T01:03:06.222Z,63.57
2023-02-04T01:05:32.629Z,63.72
2023-02-04T01:07:59.033Z,63.58
2023-02-04T01:10:25.460Z,63.68
2023-02-04T01:12:52.201Z,63.98
2023-02-04T01:15:18.652Z,63.85
2023-02-04T01:17:45.068Z,63.99
2023-02-04T01:20:11.912Z,64.48
2023-02-04T01:22:38.375Z,64.44
2023-02-04T01:25:05.186Z,65.05
2023-02-04T01:27:31.605Z,64.78
2023-02-04T01:29:58.073Z,65.13
2023-02-04T01:32:24.547Z,65.05
2023-02-04T01:34:50.960Z,65.27
2023-02-04T01:37:18.000Z,65.47
2023-02-04T01:39:44.452Z,65.60
2023-02-04T01:42:11.667Z,65.57
2023-02-04T01:44:39.371Z,65.44
2023-02-04T01:47:05.877Z,65.23
2023-02-04T01:49:32.440Z,65.29
2023-02-04T01:51:58.897Z,65.46
2023-02-04T01:54:26.543Z,65.55
2023-02-04T01:56:55.191Z,65.54
2023-02-04T01:59:22.673Z,65.51
2023-02-04T02:01:54.086Z,65.11
2023-02-04T02:04:30.170Z,65.19
2023-02-04T02:06:59.291Z,65.14
2023-02-04T02:09:27.546Z,64.88
2023-02-04T02:11:54.294Z,65.04
2023-02-04T02:14:21.065Z,64.77
2023-02-04T02:16:47.767Z,64.82
2023-02-04T02:19:20.344Z,64.90
2023-02-04T02:22:28.033Z,64.50
2023-02-04T02:24:54.459Z,64.55
2023-02-04T02:27:21.956Z,64.65
2023-02-04T02:29:48.621Z,64.51
2023-02-04T02:32:15.700Z,64.73
2023-02-04T02:34:43.494Z,64.36
2023-02-04T02:37:10.043Z,64.23
2023-02-04T02:39:38.527Z,64.43
2023-02-04T02:42:05.269Z,64.47
2023-02-04T02:44:32.211Z,64.42
2023-02-04T02:46:59.000Z,64.66
2023-02-04T02:49:26.460Z,64.87
2023-02-04T02:51:53.272Z,64.85
2023-02-04T02:54:24.187Z,64.59
2023-02-04T02:56:51.698Z,64.78
2023-02-04T02:59:18.832Z,65.05
2023-02-04T03:01:48.761Z,64.63
2023-02-04T03:04:16.332Z,65.02
2023-02-04T03:06:42.778Z,64.77
2023-02-04T03:09:09.127Z,64.56
2023-02-04T03:11:36.332Z,64.82
2023-02-04T03:14:03.937Z,64.69
2023-02-04T03:16:33.051Z,65.22
2023-02-04T03:19:04.669Z,64.63
2023-02-04T03:21:31.263Z,65.10
2023-02-04T03:23:57.647Z,65.09
2023-02-04T03:26:25.236Z,64.88
2023-02-04T03:28:53.214Z,64.90
2023-02-04T03:31:19.821Z,64.85
2023-02-04T03:33:46.302Z,64.78
2023-02-04T03:36:12.692Z,64.90
2023-02-04T03:38:39.129Z,65.21
2023-02-04T03:41:05.714Z,64.92
2023-02-04T03:43:33.928Z,65.46
2023-02-04T03:46:00.586Z,65.21
2023-02-04T03:48:26.971Z,65.23
2023-02-04T03:50:53.333Z,65.36
2023-02-04T03:53:22.015Z,65.16
2023-02-04T03:55:48.377Z,65.32
2023-02-04T03:58:14.739Z,65.40
2023-02-04T04:00:41.172Z,65.46
2023-02-04T04:03:07.612Z,65.54
2023-02-04T04:05:34.032Z,65.67
2023-02-04T04:08:00.430Z,65.29
2023-02-04T04:10:26.814Z,65.45
2023-02-04T04:12:53.197Z,65.57
2023-02-04T04:15:19.528Z,65.59
2023-02-04T04:17:45.932Z,65.61
2023-02-04T04:20:12.619Z,65.31
2023-02-04T04:22:39.321Z,65.38
2023-02-04T04:25:06.442Z,65.20
2023-02-04T04:27:32.794Z,65.18
2023-02-04T04:29:59.120Z,64.90
2023-02-04T04:32:25.449Z,64.95
2023-02-04T04:34:51.788Z,65.17
2023-02-04T04:37:18.121Z,65.12
2023-02-04T04:39:44.496Z,64.98
2023-02-04T04:42:10.816Z,64.78
2023-02-04T04:44:37.176Z,64.94
2023-02-04T04:47:03.664Z,64.90
2023-02-04T04:49:30.033Z,65.02
2023-02-04T04:51:56.374Z,65.08
2023-02-04T04:54:22.709Z,65.25
2023-02-04T04:56:49.053Z,65.24
2023-02-04T04:59:15.486Z,64.91
2023-02-04T05:01:42.012Z,65.04
2023-02-04T05:04:08.362Z,65.33
2023-02-04T05:06:34.724Z,65.22
2023-02-04T05:09:01.161Z,65.35
2023-02-04T05:11:27.624Z,65.21
2023-02-04T05:13:53.936Z,65.56
2023-02-04T05:16:20.384Z,65.63
2023-02-04T05:18:47.040Z,65.82
2023-02-04T05:21:13.506Z,65.42
2023-02-04T05:23:39.852Z,65.57
2023-02-04T05:26:06.189Z,65.89
2023-02-04T05:28:32.519Z,65.58
2023-02-04T05:30:58.923Z,65.88
2023-02-04T05:33:25.299Z,65.73
2023-02-04T05:35:51.667Z,66.03
2023-02-04T05:38:18.150Z,65.83
2023-02-04T05:40:44.487Z,65.94
2023-02-04T05:43:10.824Z,65.51
2023-02-04T05:45:37.218Z,65.70
2023-02-04T05:48:03.774Z,65.74
2023-02-04T05:50:30.312Z,65.86
2023-02-04T05:52:56.916Z,65.89
2023-02-04T05:55:23.269Z,65.71
2023-02-04T05:57:49.608Z,65.98
2023-02-04T06:00:16.016Z,65.55
2023-02-04T06:02:42.547Z,66.02
2023-02-04T06:05:08.884Z,66.21
2023-02-04T06:07:35.209Z,65.60
2023-02-04T06:10:01.598Z,65.02
2023-02-04T06:12:27.954Z,64.63
2023-02-04T06:14:54.309Z,64.32
2023-02-04T06:17:20.679Z,64.21
2023-02-04T06:19:47.001Z,63.58
2023-02-04T06:22:13.581Z,63.77
2023-02-04T06:24:39.987Z,63.11
2023-02-04T06:27:06.335Z,63.28
2023-02-04T06:29:32.657Z,62.75
2023-02-04T06:31:59.183Z,62.75
2023-02-04T06:34:25.616Z,62.74
2023-02-04T06:36:52.042Z,62.79
2023-02-04T06:39:18.401Z,62.68
2023-02-04T06:41:44.721Z,62.45
2023-02-04T06:44:11.126Z,62.78
2023-02-04T06:46:37.498Z,62.90
2023-02-04T06:49:03.822Z,62.49
2023-02-04T06:51:30.482Z,62.74
2023-02-04T06:53:56.859Z,62.91
2023-02-04T06:56:23.296Z,63.07
2023-02-04T06:58:49.720Z,62.85
2023-02-04T07:01:16.104Z,62.79
2023-02-04T07:03:42.467Z,62.87
2023-02-04T07:06:08.829Z,62.74
2023-02-04T07:08:35.199Z,62.85
2023-02-04T07:11:01.569Z,62.62
2023-02-04T07:13:27.923Z,62.53
2023-02-04T07:15:54.457Z,62.80
2023-02-04T07:18:21.284Z,62.85
2023-02-04T07:20:47.630Z,62.54
2023-02-04T07:23:14.017Z,62.90
2023-02-04T07:25:40.456Z,62.09
2023-02-04T07:28:06.912Z,62.35
2023-02-04T07:30:33.678Z,62.45
2023-02-04T07:33:00.498Z,61.93
2023-02-04T07:35:26.874Z,61.96
2023-02-04T07:37:53.204Z,61.93
2023-02-04T07:40:19.628Z,61.79
2023-02-04T07:42:46.009Z,62.21
2023-02-04T07:45:12.448Z,61.98
2023-02-04T07:47:38.849Z,62.03
2023-02-04T07:50:05.591Z,61.97
2023-02-04T07:52:31.927Z,61.87
2023-02-04T07:54:58.317Z,62.03
2023-02-04T07:57:24.668Z,62.19
2023-02-04T07:59:51.712Z,62.02
2023-02-04T08:02:18.090Z,61.77
2023-02-04T08:04:44.426Z,62.04
2023-02-04T08:07:10.777Z,61.73
2023-02-04T08:09:37.175Z,61.36
2023-02-04T08:12:03.724Z,61.16
2023-02-04T08:14:30.130Z,61.20
2023-02-04T08:16:56.521Z,61.27
2023-02-04T08:19:23.067Z,61.35
2023-02-04T08:21:49.611Z,61.29
2023-02-04T08:24:17.256Z,61.14
2023-02-04T08:26:44.143Z,61.27
2023-02-04T08:29:10.667Z,61.86
2023-02-04T08:31:38.095Z,61.56
2023-02-04T08:34:05.897Z,61.93
2023-02-04T08:36:32.695Z,61.83
2023-02-04T08:38:59.242Z,61.74
2023-02-04T08:41:25.790Z,61.64
2023-02-04T08:43:52.569Z,61.80
2023-02-04T08:46:19.136Z,61.45
2023-02-04T08:48:45.697Z,61.09
2023-02-04T08:51:12.276Z,61.01
2023-02-04T08:53:40.559Z,60.80
2023-02-04T08:56:08.912Z,60.84
2023-02-04T08:58:35.567Z,60.66
2023-02-04T09:01:02.728Z,60.76
2023-02-04T09:03:29.273Z,60.52
2023-02-04T09:05:55.864Z,60.35
2023-02-04T09:08:22.337Z,60.78
2023-02-04T09:10:48.825Z,60.82
2023-02-04T09:13:15.550Z,60.91
2023-02-04T09:15:42.043Z,60.88
2023-02-04T09:18:19.951Z,60.88
2023-02-04T09:20:46.575Z,60.50
2023-02-04T09:23:14.317Z,60.83
2023-02-04T09:25:43.849Z,60.70
2023-02-04T09:28:11.879Z,60.63
2023-02-04T09:30:39.401Z,60.32
2023-02-04T09:33:05.966Z,60.20
2023-02-04T09:35:32.372Z,60.20
2023-02-04T09:37:58.784Z,60.11
2023-02-04T09:40:27.553Z,60.50
2023-02-04T09:42:54.790Z,60.50
2023-02-04T09:45:28.753Z,60.60
2023-02-04T09:47:57.489Z,60.22
2023-02-04T09:50:26.524Z,59.81
2023-02-04T09:52:55.517Z,59.84
2023-02-04T09:55:28.470Z,59.41
2023-02-04T09:57:55.248Z,59.00
2023-02-04T10:00:24.893Z,58.76
2023-02-04T10:02:51.490Z,57.77
2023-02-04T10:05:24.648Z,58.47
2023-02-04T10:07:51.088Z,58.26
2023-02-04T10:10:23.944Z,58.65
2023-02-04T10:12:52.570Z,58.29
2023-02-04T10:15:20.459Z,58.79
2023-02-04T10:17:49.419Z,58.39
2023-02-04T10:20:21.716Z,58.44
2023-02-04T10:22:51.106Z,58.39
2023-02-04T10:25:20.389Z,58.17
2023-02-04T10:27:51.901Z,57.74
2023-02-04T10:30:21.618Z,57.72
2023-02-04T10:32:48.339Z,57.75
2023-02-04T10:35:17.520Z,57.78
2023-02-04T10:37:44.346Z,57.50
2023-02-04T10:40:34.082Z,57.70
2023-02-04T10:43:10.449Z,58.21
2023-02-04T10:45:37.948Z,57.19
2023-02-04T10:48:04.985Z,56.49
2023-02-04T10:50:31.684Z,56.71
2023-02-04T10:53:18.931Z,56.73
2023-02-04T10:55:47.250Z,56.63
2023-02-04T10:58:20.308Z,56.85
2023-02-04T11:00:46.786Z,56.05
2023-02-04T11:03:21.496Z,56.20
2023-02-04T11:05:48.077Z,55.64
2023-02-04T11:08:24.446Z,55.38
2023-02-04T11:11:15.584Z,54.62
2023-02-04T11:13:49.096Z,54.53
2023-02-04T11:16:18.439Z,54.16
2023-02-04T11:18:48.650Z,53.80
2023-02-04T11:21:33.058Z,54.22
2023-02-04T11:24:23.943Z,53.83
2023-02-04T11:26:53.868Z,53.67
2023-02-04T11:29:31.148Z,54.06
2023-02-04T11:32:12.168Z,53.67
2023-02-04T11:34:49.755Z,53.66
2023-02-04T11:37:27.785Z,53.17
2023-02-04T11:39:58.014Z,52.68
2023-02-04T11:42:30.209Z,52.59
2023-02-04T11:45:02.318Z,52.60
2023-02-04T11:47:35.648Z,53.05
2023-02-04T11:50:12.352Z,53.29
2023-02-04T11:52:42.486Z,52.90
2023-02-04T11:55:12.998Z,52.64
2023-02-04T11:57:41.641Z,52.52
2023-02-04T12:00:17.972Z,53.00
2023-02-04T12:02:47.199Z,52.76
2023-02-04T12:05:19.400Z,52.88
2023-02-04T12:07:47.829Z,52.28
2023-02-04T12:10:16.980Z,52.50
2023-02-04T12:12:49.280Z,52.29
2023-02-04T12:15:20.959Z,51.57
2023-02-04T12:17:59.837Z,51.50
2023-02-04T12:20:26.377Z,51.68
2023-02-04T12:22:53.177Z,51.70
2023-02-04T12:25:20.084Z,51.83
2023-02-04T12:27:46.525Z,52.03
2023-02-04T12:30:13.202Z,52.02
2023-02-04T12:32:39.797Z,52.51
2023-02-04T12:35:06.408Z,52.05
2023-02-04T12:37:32.769Z,52.38
2023-02-04T12:39:59.299Z,51.88
2023-02-04T12:42:25.642Z,51.87
2023-02-04T12:44:52.033Z,51.61
2023-02-04T12:47:18.404Z,51.04
2023-02-04T12:49:44.773Z,50.81
2023-02-04T12:52:11.286Z,50.92
2023-02-04T12:54:37.936Z,50.93
2023-02-04T12:57:04.316Z,50.52
2023-02-04T12:59:33.716Z,49.83
2023-02-04T13:02:00.258Z,49.33
2023-02-04T13:04:26.701Z,49.21
2023-02-04T13:06:53.250Z,48.66
2023-02-04T13:09:19.659Z,48.08
2023-02-04T13:11:46.100Z,47.85
2023-02-04T13:14:12.551Z,47.60
2023-02-04T13:16:38.912Z,46.94
2023-02-04T13:19:07.844Z,47.19
2023-02-04T13:21:36.356Z,46.94
2023-02-04T13:24:02.766Z,47.37
2023-02-04T13:26:29.231Z,46.94
2023-02-04T13:28:55.634Z,46.78
2023-02-04T13:31:22.149Z,47.24
2023-02-04T13:33:48.872Z,46.87
2023-02-04T13:36:15.473Z,46.92
2023-02-04T13:38:41.896Z,46.84
2023-02-04T13:41:08.320Z,46.78
2023-02-04T13:43:34.737Z,46.30
2023-02-04T13:46:02.897Z,46.15
2023-02-04T13:48:29.585Z,45.50
2023-02-04T13:50:56.032Z,45.74
2023-02-04T13:53:22.585Z,45.67
2023-02-04T13:55:49.009Z,45.75
2023-02-04T13:58:15.412Z,45.85
2023-02-04T14:00:41.805Z,45.53
2023-02-04T14:03:08.284Z,46.06
2023-02-04T14:05:34.743Z,45.88
2023-02-04T14:08:01.155Z,45.16
2023-02-04T14:10:27.615Z,45.36
2023-02-04T14:12:54.266Z,45.13
2023-02-04T14:15:20.664Z,45.69
2023-02-04T14:17:47.096Z,45.68
2023-02-04T14:20:13.538Z,45.68
2023-02-04T14:22:40.088Z,45.87
2023-02-04T14:25:06.580Z,45.91
2023-02-04T14:27:35.330Z,45.62
2023-02-04T14:30:01.840Z,45.43
2023-02-04T14:32:28.258Z,45.38
2023-02-04T14:34:54.754Z,45.96
2023-02-04T14:37:21.146Z,45.34
2023-02-04T14:39:47.471Z,45.49
2023-02-04T14:42:13.914Z,45.55
2023-02-04T14:44:40.337Z,45.61
2023-02-04T14:47:06.670Z,45.36
2023-02-04T14:49:34.847Z,45.04
2023-02-04T14:52:01.186Z,45.18
2023-02-04T14:54:27.559Z,45.69
2023-02-04T14:56:54.500Z,45.87
2023-02-04T14:59:20.984Z,45.79
2023-02-04T15:01:47.414Z,45.94
2023-02-04T15:04:13.843Z,45.96
2023-02-04T15:06:40.326Z,45.80
2023-02-04T15:09:06.735Z,46.07
2023-02-04T15:11:34.560Z,46.08
2023-02-04T15:14:00.957Z,45.85
2023-02-04T15:16:27.383Z,46.13
2023-02-04T15:18:54.013Z,46.02
2023-02-04T15:21:20.391Z,46.00
2023-02-04T15:23:47.380Z,46.02
2023-02-04T15:26:14.346Z,46.01
2023-02-04T15:28:40.774Z,45.87
2023-02-04T15:31:07.336Z,45.92
2023-02-04T15:33:33.736Z,45.77
2023-02-04T15:36:00.174Z,45.90
2023-02-04T15:38:26.574Z,45.66
2023-02-04T15:40:53.023Z,45.92
2023-02-04T15:43:19.478Z,45.91
2023-02-04T15:45:46.097Z,46.05
2023-02-04T15:48:13.288Z,45.99
2023-02-04T15:50:39.765Z,46.21
2023-02-04T15:53:06.765Z,46.49
2023-02-04T15:55:33.479Z,46.77
2023-02-04T15:57:59.948Z,47.00
2023-02-04T16:00:26.415Z,47.01
2023-02-04T16:02:53.033Z,46.81
2023-02-04T16:05:19.426Z,47.34
2023-02-04T16:07:45.775Z,47.33
2023-02-04T16:10:12.403Z,47.13
2023-02-04T16:12:38.830Z,47.39
2023-02-04T16:15:05.638Z,47.53
2023-02-04T16:17:32.021Z,47.64
2023-02-04T16:19:58.428Z,47.81
2023-02-04T16:22:24.865Z,48.06
2023-02-04T16:24:52.892Z,48.42
2023-02-04T16:27:19.885Z,48.30
2023-02-04T16:29:46.505Z,48.25
2023-02-04T16:32:12.973Z,48.28
2023-02-04T16:34:39.497Z,48.13
2023-02-04T16:37:05.971Z,48.79
2023-02-04T16:39:32.329Z,48.56
2023-02-04T16:41:58.854Z,48.47
2023-02-04T16:44:25.291Z,48.91
2023-02-04T16:46:51.713Z,48.88
2023-02-04T16:49:18.108Z,49.00
2023-02-04T16:51:44.461Z,49.09
2023-02-04T16:54:11.016Z,49.45
2023-02-04T16:56:37.369Z,49.64
2023-02-04T16:59:04.212Z,49.86
2023-02-04T17:01:30.724Z,49.80
2023-02-04T17:04:00.046Z,50.17
2023-02-04T17:06:32.052Z,50.17
2023-02-04T17:08:59.115Z,50.30
2023-02-04T17:11:28.987Z,50.29
2023-02-04T17:13:56.534Z,50.25
2023-02-04T17:16:22.991Z,50.46
2023-02-04T17:18:49.489Z,50.96
2023-02-04T17:21:16.117Z,50.50
2023-02-04T17:23:44.093Z,51.07
2023-02-04T17:26:10.512Z,51.08
2023-02-04T17:28:36.870Z,51.07
2023-02-04T17:31:03.312Z,51.13
2023-02-04T17:33:29.757Z,51.54
2023-02-04T17:35:56.175Z,51.51
2023-02-04T17:38:22.527Z,51.60
2023-02-04T17:40:50.106Z,51.76
2023-02-04T17:43:16.867Z,51.84
2023-02-04T17:45:43.340Z,51.76
2023-02-04T17:48:09.691Z,51.52
2023-02-04T17:50:39.268Z,51.49
2023-02-04T17:53:06.790Z,51.79
2023-02-04T17:55:35.328Z,52.04
2023-02-04T17:58:11.380Z,51.94
2023-02-04T18:00:37.944Z,51.90
2023-02-04T18:03:05.724Z,52.01
2023-02-04T18:05:35.733Z,52.13
2023-02-04T18:08:11.564Z,52.57
2023-02-04T18:10:41.571Z,52.63
2023-02-04T18:13:17.127Z,52.38
2023-02-04T18:15:55.412Z,52.66
2023-02-04T18:18:21.779Z,53.29
2023-02-04T18:20:56.336Z,52.90
2023-02-04T18:23:22.904Z,53.12
2023-02-04T18:25:49.292Z,53.12
2023-02-04T18:28:19.393Z,53.06
2023-02-04T18:30:46.899Z,53.47
2023-02-04T18:33:25.983Z,53.75
2023-02-04T18:36:00.545Z,53.41
2023-02-04T18:38:37.067Z,53.41
2023-02-04T18:41:27.632Z,53.91
2023-02-04T18:44:02.367Z,53.81
2023-02-04T18:46:35.504Z,53.80
2023-02-04T18:49:26.564Z,53.94
2023-02-04T18:51:53.563Z,54.00
2023-02-04T18:54:36.188Z,54.34
2023-02-04T18:57:16.021Z,54.12
2023-02-04T18:59:42.511Z,54.06
2023-02-04T19:02:21.305Z,54.72
2023-02-04T19:04:47.649Z,54.49
2023-02-04T19:07:15.784Z,55.00
2023-02-04T19:09:42.119Z,54.88
2023-02-04T19:12:28.240Z,55.12
2023-02-04T19:14:54.567Z,55.09
2023-02-04T19:17:25.177Z,55.13
2023-02-04T19:20:02.574Z,54.49
2023-02-04T19:22:41.609Z,54.97
2023-02-04T19:25:33.101Z,54.88
2023-02-04T19:28:02.194Z,54.71
2023-02-04T19:30:28.556Z,55.41
2023-02-04T19:32:58.240Z,55.23
2023-02-04T19:35:27.558Z,55.34
2023-02-04T19:37:56.632Z,55.15
2023-02-04T19:40:23.185Z,55.17
2023-02-04T19:42:49.802Z,55.42
2023-02-04T19:45:25.274Z,55.35
2023-02-04T19:47:54.088Z,55.38
2023-02-04T19:50:34.330Z,55.42
2023-02-04T19:53:05.017Z,55.21
2023-02-04T19:55:35.718Z,55.45
2023-02-04T19:58:29.763Z,55.47
2023-02-04T20:01:04.859Z,55.70
2023-02-04T20:03:40.545Z,55.55
2023-02-04T20:06:09.936Z,55.85
2023-02-04T20:08:46.074Z,55.71
2023-02-04T20:11:24.685Z,55.62
2023-02-04T20:13:56.807Z,55.61
2023-02-04T20:16:40.843Z,56.06
2023-02-04T20:19:26.408Z,55.76
2023-02-04T20:22:07.780Z,55.84
2023-02-04T20:24:36.896Z,56.30
2023-02-04T20:27:36.679Z,56.25
2023-02-04T20:30:11.693Z,56.03
2023-02-04T20:32:55.627Z,56.52
2023-02-04T20:35:22.549Z,56.42
2023-02-04T20:37:59.248Z,56.59
2023-02-04T20:40:31.703Z,56.34
2023-02-04T20:43:01.248Z,56.95
2023-02-04T20:45:36.572Z,56.76
2023-02-04T20:48:18.042Z,57.03
2023-02-04T20:50:45.550Z,56.81
2023-02-04T20:53:19.517Z,56.92
2023-02-04T20:56:03.802Z,56.71
2023-02-04T20:58:38.797Z,56.69
2023-02-04T21:01:19.901Z,56.80
2023-02-04T21:03:47.321Z,57.05
2023-02-04T21:06:22.701Z,57.19
2023-02-04T21:08:51.961Z,56.96
2023-02-04T21:11:18.970Z,57.16
2023-02-04T21:13:45.364Z,57.50
2023-02-04T21:16:11.837Z,57.12
2023-02-04T21:18:38.939Z,57.46
2023-02-04T21:21:07.786Z,57.52
2023-02-04T21:23:35.621Z,57.34
2023-02-04T21:26:02.214Z,57.52
2023-02-04T21:28:31.878Z,57.46
2023-02-04T21:30:59.369Z,57.33
2023-02-04T21:33:26.001Z,57.78
2023-02-04T21:35:52.389Z,57.64
2023-02-04T21:38:18.796Z,57.77
2023-02-04T21:40:45.200Z,57.77
2023-02-04T21:43:11.603Z,57.74
2023-02-04T21:45:39.705Z,57.72
2023-02-04T21:48:07.885Z,58.07
2023-02-04T21:50:34.889Z,57.71
2023-02-04T21:53:01.320Z,57.95
2023-02-04T21:55:28.848Z,57.83
2023-02-04T21:57:55.337Z,58.25
2023-02-04T22:00:23.677Z,58.33
2023-02-04T22:02:51.310Z,58.01
2023-02-04T22:05:18.242Z,58.19
2023-02-04T22:07:44.686Z,58.11
2023-02-04T22:10:20.976Z,58.34
2023-02-04T22:12:47.877Z,58.37
2023-02-04T22:15:17.941Z,58.49
2023-02-04T22:17:45.188Z,58.56
2023-02-04T22:20:15.475Z,58.87
2023-02-04T22:22:46.094Z,58.50
2023-02-04T22:25:14.851Z,58.79
2023-02-04T22:27:41.290Z,58.75
2023-02-04T22:30:08.637Z,58.94
2023-02-04T22:32:35.061Z,59.22
2023-02-04T22:35:01.485Z,59.10
2023-02-04T22:37:27.866Z,58.98
2023-02-04T22:39:54.243Z,59.21
2023-02-04T22:42:20.658Z,58.98
2023-02-04T22:44:47.161Z,59.11
2023-02-04T22:47:13.516Z,59.01
2023-02-04T22:49:40.147Z,59.30
2023-02-04T22:52:06.842Z,59.51
2023-02-04T22:54:33.556Z,59.40
2023-02-04T22:57:00.557Z,59.75
2023-02-04T22:59:27.807Z,59.45
2023-02-04T23:01:55.348Z,59.54
2023-02-04T23:04:22.311Z,59.60
2023-02-04T23:06:49.196Z,59.61
2023-02-04T23:09:17.602Z,59.66
2023-02-04T23:11:44.220Z,59.37
2023-02-04T23:14:10.742Z,59.16
2023-02-04T23:16:37.145Z,59.39
2023-02-04T23:19:04.027Z,59.03
2023-02-04T23:21:30.995Z,59.16
2023-02-04T23:23:59.168Z,59.27
2023-02-04T23:26:25.875Z,59.16
2023-02-04T23:28:52.295Z,58.99
2023-02-04T23:31:18.745Z,58.95
2023-02-04T23:33:45.378Z,58.61
2023-02-04T23:36:11.857Z,58.88
2023-02-04T23:38:38.188Z,58.33
2023-02-04T23:41:04.860Z,58.26
2023-02-04T23:43:31.212Z,58.41
2023-02-04T23:45:59.754Z,58.22
2023-02-04T23:48:26.192Z,58.21
2023-02-04T23:50:52.669Z,58.38
2023-02-04T23:53:19.343Z,58.60
2023-02-04T23:55:46.203Z,58.47
2023-02-04T23:58:14.821Z,57.80
